Olamon, Maine
Current Conditions -  °F | °C
As of 10:53 PM on Saturday 22 Nov 2014 (Local Time) from KBGR Reporting Station
Broken Clouds Broken Clouds  
Wind Chill: 28°   Ceiling: 9000
Heat Index: 34°   Visibility: 10mi
Dew Point: 12°   Wind: 7mph
Humidity: 40%   Direction: 210°SSW
Pressure: 29.92"   Gusts: NA
Location:  45.12°N, 68.6°W
Report Text: KBGR 230353Z 21006KT 10SM FEW060 BKN090 01/M11 A2992 RMK AO2 SLP134 T00111111
Loading
Personal Weather Stations






























Interactive Weather Map New forecast layout! Learn more

10-Day Weather Forecast

Advertisements
Track Severe Weather on mobile